Time;durP1;ratioP1;P1;durP2;ratioP2;P2;SDS_P1;SDS_P2;PMS_P1;PMS_P2;Temp;Humidity;BMP_temperature;BMP_pressure;BME280_temperature;BME280_humidity;BME280_pressure;Samples;Min_cycle;Max_cycle;Signal;HPM_P1;HPM_P2
2023/05/25 00:01:47;;;;;;;11.02;2.00;;;;;;;;;;5048803;28;20079;-65
2023/05/25 00:04:18;;;;;;;4.75;1.58;;;;;;;;;;5040885;28;20053;-68
2023/05/25 00:06:46;;;;;;;3.87;1.60;;;;;;;;;;5034679;28;20093;-66
2023/05/25 00:09:12;;;;;;;3.30;1.40;;;;;;;;;;5042992;28;20296;-68
2023/05/25 00:11:40;;;;;;;9.18;2.08;;;;;;;;;;5032619;28;20052;-64
2023/05/25 00:14:07;;;;;;;3.92;1.55;;;;;;;;;;5013915;28;20456;-69
2023/05/25 00:16:36;;;;;;;4.65;1.63;;;;;;;;;;5020286;28;20084;-66
2023/05/25 00:19:03;;;;;;;4.10;1.33;;;;;;;;;;5017966;28;20136;-68
2023/05/25 00:21:31;;;;;;;7.38;1.90;;;;;;;;;;5040864;28;20083;-65
2023/05/25 00:23:57;;;;;;;4.40;1.50;;;;;;;;;;5040105;28;20104;-67
2023/05/25 00:26:24;;;;;;;4.28;1.38;;;;;;;;;;5017591;28;20189;-64
2023/05/25 00:28:52;;;;;;;7.00;1.83;;;;;;;;;;5019094;28;20049;-66
2023/05/25 00:31:19;;;;;;;8.00;1.87;;;;;;;;;;5019036;28;20062;-64
2023/05/25 00:33:45;;;;;;;5.13;1.55;;;;;;;;;;5027044;28;20361;-66
2023/05/25 00:36:11;;;;;;;4.13;1.33;;;;;;;;;;4996799;28;20196;-67
2023/05/25 00:38:38;;;;;;;3.33;1.30;;;;;;;;;;4999784;28;20144;-65
2023/05/25 00:41:05;;;;;;;6.88;1.73;;;;;;;;;;4995369;28;20058;-64
2023/05/25 00:43:32;;;;;;;4.38;1.75;;;;;;;;;;5012078;28;20069;-64
2023/05/25 00:46:00;;;;;;;6.07;1.50;;;;;;;;;;5008306;28;20138;-65
2023/05/25 00:48:26;;;;;;;7.43;2.05;;;;;;;;;;5020435;28;20137;-66
2023/05/25 00:50:56;;;;;;;5.68;1.60;;;;;;;;;;5027305;28;20076;-67
2023/05/25 00:53:23;;;;;;;5.05;1.88;;;;;;;;;;5036431;28;20140;-67
2023/05/25 00:55:51;;;;;;;3.67;1.73;;;;;;;;;;5007082;28;20045;-64
2023/05/25 00:58:20;;;;;;;5.13;1.25;;;;;;;;;;5020199;28;20140;-64
2023/05/25 01:00:48;;;;;;;3.05;1.55;;;;;;;;;;5032570;28;20405;-64
2023/05/25 01:03:20;;;;;;;5.37;1.67;;;;;;;;;;5038780;28;20080;-68
2023/05/25 01:05:48;;;;;;;6.20;1.83;;;;;;;;;;5000676;28;20057;-66
2023/05/25 01:08:17;;;;;;;4.75;1.55;;;;;;;;;;5029687;28;20100;-67
2023/05/25 01:10:45;;;;;;;4.85;1.80;;;;;;;;;;5021974;28;20140;-66
2023/05/25 01:13:13;;;;;;;4.13;1.40;;;;;;;;;;5017057;28;20065;-64
2023/05/25 01:15:39;;;;;;;4.45;1.67;;;;;;;;;;5015244;28;20057;-64
2023/05/25 01:18:08;;;;;;;4.13;1.48;;;;;;;;;;5027451;28;20072;-67
2023/05/25 01:20:34;;;;;;;;;;;;;;;;;;5041001;28;20064;-67
2023/05/25 01:23:05;;;;;;;4.20;1.35;;;;;;;;;;5036072;28;19925;-66
2023/05/25 01:25:35;;;;;;;7.22;1.80;;;;;;;;;;5052143;28;20052;-68
2023/05/25 01:28:04;;;;;;;5.60;1.67;;;;;;;;;;5035707;28;20045;-63
2023/05/25 01:30:32;;;;;;;7.20;1.88;;;;;;;;;;5056364;28;20076;-64
2023/05/25 01:32:59;;;;;;;5.47;1.35;;;;;;;;;;5053394;28;20144;-67
2023/05/25 01:35:27;;;;;;;3.55;1.50;;;;;;;;;;5028327;28;20072;-66
2023/05/25 01:37:53;;;;;;;8.35;1.92;;;;;;;;;;5041583;28;20331;-64
2023/05/25 01:40:21;;;;;;;3.95;1.60;;;;;;;;;;5039212;28;20075;-67
2023/05/25 01:42:48;;;;;;;10.33;2.40;;;;;;;;;;5036194;28;20087;-62
2023/05/25 01:45:14;;;;;;;4.25;1.65;;;;;;;;;;5037938;28;20060;-65
2023/05/25 01:47:45;;;;;;;6.40;1.83;;;;;;;;;;5045873;28;20169;-65
2023/05/25 01:50:14;;;;;;;4.93;1.42;;;;;;;;;;5060008;28;20064;-68
2023/05/25 01:52:41;;;;;;;3.53;1.40;;;;;;;;;;5056018;28;20068;-64
2023/05/25 01:55:11;;;;;;;4.65;1.13;;;;;;;;;;5036525;28;20060;-64
2023/05/25 01:57:42;;;;;;;7.20;1.92;;;;;;;;;;5046510;28;20803;-63
2023/05/25 02:00:09;;;;;;;4.05;1.65;;;;;;;;;;5040629;28;20135;-67
2023/05/25 02:02:36;;;;;;;5.95;1.70;;;;;;;;;;5057521;28;20056;-67
2023/05/25 02:05:03;;;;;;;8.23;1.75;;;;;;;;;;5021884;28;20067;-64
2023/05/25 02:07:29;;;;;;;6.45;1.80;;;;;;;;;;5036657;28;20059;-65
2023/05/25 02:09:56;;;;;;;6.20;1.75;;;;;;;;;;5029152;28;20049;-65
2023/05/25 02:12:22;;;;;;;5.63;1.40;;;;;;;;;;5026655;28;20065;-65
2023/05/25 02:14:50;;;;;;;5.97;2.00;;;;;;;;;;5018225;28;20060;-64
2023/05/25 02:17:18;;;;;;;5.35;1.50;;;;;;;;;;5057355;28;20463;-67
2023/05/25 02:19:45;;;;;;;4.33;1.67;;;;;;;;;;5044712;28;20048;-63
2023/05/25 02:22:11;;;;;;;4.68;1.58;;;;;;;;;;5055432;28;20049;-66
2023/05/25 02:24:38;;;;;;;5.32;1.80;;;;;;;;;;5042523;28;20147;-65
2023/05/25 02:27:05;;;;;;;4.47;1.67;;;;;;;;;;5038501;28;20053;-64
2023/05/25 02:29:31;;;;;;;3.28;1.35;;;;;;;;;;5049474;28;20049;-67
2023/05/25 02:31:59;;;;;;;5.75;1.75;;;;;;;;;;5038707;28;20565;-67
2023/05/25 02:34:25;;;;;;;4.18;1.80;;;;;;;;;;5032173;28;20262;-64
2023/05/25 02:36:52;;;;;;;6.35;1.58;;;;;;;;;;5033948;28;20100;-65
2023/05/25 02:39:18;;;;;;;4.72;1.63;;;;;;;;;;5053187;28;20085;-64
2023/05/25 02:41:47;;;;;;;5.80;1.77;;;;;;;;;;5035686;28;20085;-67
2023/05/25 02:44:14;;;;;;;6.47;1.50;;;;;;;;;;5055432;28;20057;-65
2023/05/25 02:46:40;;;;;;;5.68;1.58;;;;;;;;;;5044101;28;20049;-63
2023/05/25 02:49:08;;;;;;;5.22;2.15;;;;;;;;;;5055327;28;20071;-64
2023/05/25 02:51:34;;;;;;;3.95;1.65;;;;;;;;;;5033712;28;20067;-66
2023/05/25 02:54:01;;;;;;;3.72;1.60;;;;;;;;;;5012032;28;20061;-64
2023/05/25 02:56:27;;;;;;;4.63;1.50;;;;;;;;;;5050220;28;20067;-63
2023/05/25 02:58:54;;;;;;;7.38;1.80;;;;;;;;;;5038992;28;20056;-68
2023/05/25 03:01:20;;;;;;;3.03;1.33;;;;;;;;;;5026540;28;20148;-62
2023/05/25 03:03:50;;;;;;;7.65;1.95;;;;;;;;;;5015338;28;20060;-66
2023/05/25 03:06:20;;;;;;;4.20;1.80;;;;;;;;;;5002467;28;20118;-66
2023/05/25 03:08:46;;;;;;;6.30;1.77;;;;;;;;;;5025477;28;20053;-67
2023/05/25 03:11:13;;;;;;;5.40;2.00;;;;;;;;;;5030550;28;20140;-66
2023/05/25 03:13:39;;;;;;;11.00;2.78;;;;;;;;;;5033728;28;20053;-63
2023/05/25 03:16:06;;;;;;;5.10;1.80;;;;;;;;;;5027717;28;20052;-67
2023/05/25 03:18:33;;;;;;;4.57;1.80;;;;;;;;;;5015382;28;20072;-67
2023/05/25 03:20:59;;;;;;;3.97;1.70;;;;;;;;;;5015989;28;20148;-64
2023/05/25 03:23:27;;;;;;;4.60;1.58;;;;;;;;;;5013225;28;20111;-67
2023/05/25 03:25:55;;;;;;;8.97;2.07;;;;;;;;;;4986173;28;20065;-63
2023/05/25 03:28:22;;;;;;;4.53;1.70;;;;;;;;;;5013529;28;20056;-64
2023/05/25 03:30:48;;;;;;;7.18;2.10;;;;;;;;;;5027806;28;20339;-64
2023/05/25 03:33:14;;;;;;;4.25;1.23;;;;;;;;;;5043322;28;20177;-65
2023/05/25 03:35:41;;;;;;;4.18;1.35;;;;;;;;;;5036970;28;20155;-66
2023/05/25 03:38:07;;;;;;;4.88;1.60;;;;;;;;;;5024205;28;20065;-66
2023/05/25 03:40:35;;;;;;;4.07;1.60;;;;;;;;;;5009616;28;20096;-66
2023/05/25 03:43:02;;;;;;;4.17;1.80;;;;;;;;;;5024942;28;20140;-68
2023/05/25 03:45:28;;;;;;;8.20;2.40;;;;;;;;;;5033777;28;20068;-67
2023/05/25 03:47:54;;;;;;;3.72;1.60;;;;;;;;;;5026087;28;20057;-64
2023/05/25 03:50:21;;;;;;;3.80;1.80;;;;;;;;;;5019318;28;20064;-67
2023/05/25 03:52:47;;;;;;;7.28;1.65;;;;;;;;;;5011446;28;20185;-67
2023/05/25 03:55:14;;;;;;;7.90;1.83;;;;;;;;;;5019245;28;20072;-66
2023/05/25 03:57:45;;;;;;;5.68;1.73;;;;;;;;;;5019190;28;20049;-66
2023/05/25 04:00:12;;;;;;;10.57;2.50;;;;;;;;;;5023697;28;20060;-65
2023/05/25 04:02:39;;;;;;;6.15;1.70;;;;;;;;;;5029600;28;20114;-64
2023/05/25 04:05:06;;;;;;;8.07;2.10;;;;;;;;;;5030601;28;20052;-64
2023/05/25 04:07:33;;;;;;;5.90;1.90;;;;;;;;;;5053002;28;20060;-64
2023/05/25 04:09:59;;;;;;;5.75;2.03;;;;;;;;;;5039519;28;20062;-67
2023/05/25 04:12:26;;;;;;;4.25;1.50;;;;;;;;;;5043244;28;20643;-65
2023/05/25 04:14:55;;;;;;;6.18;1.77;;;;;;;;;;5014072;28;20063;-65
2023/05/25 04:17:23;;;;;;;7.70;1.83;;;;;;;;;;5040285;28;20059;-64
2023/05/25 04:19:50;;;;;;;6.10;1.52;;;;;;;;;;5040926;28;20117;-64
2023/05/25 04:22:17;;;;;;;6.00;2.00;;;;;;;;;;5056197;28;20163;-67
2023/05/25 04:24:44;;;;;;;5.40;1.77;;;;;;;;;;5015472;28;20377;-67
2023/05/25 04:27:11;;;;;;;5.72;1.85;;;;;;;;;;5039085;28;20065;-68
2023/05/25 04:29:38;;;;;;;3.75;1.70;;;;;;;;;;5038628;28;20063;-65
2023/05/25 04:32:08;;;;;;;5.07;1.50;;;;;;;;;;5041292;28;20127;-63
2023/05/25 04:34:36;;;;;;;5.78;2.17;;;;;;;;;;5043033;28;20055;-67
2023/05/25 04:37:04;;;;;;;4.47;1.85;;;;;;;;;;5041029;28;20157;-68
2023/05/25 04:39:30;;;;;;;5.25;1.80;;;;;;;;;;5052542;28;20055;-64
2023/05/25 04:41:57;;;;;;;5.57;1.77;;;;;;;;;;5043274;28;20061;-68
2023/05/25 04:44:24;;;;;;;5.88;2.22;;;;;;;;;;5053923;28;20063;-68
2023/05/25 04:46:51;;;;;;;8.65;2.20;;;;;;;;;;5040501;28;20049;-68
2023/05/25 04:49:19;;;;;;;9.07;3.50;;;;;;;;;;5039339;28;20067;-64
2023/05/25 04:51:45;;;;;;;7.10;2.53;;;;;;;;;;5035656;28;20108;-67
2023/05/25 04:54:12;;;;;;;8.27;1.90;;;;;;;;;;5045613;28;20140;-69
2023/05/25 04:56:38;;;;;;;5.47;1.67;;;;;;;;;;5034565;28;20181;-67
2023/05/25 04:59:05;;;;;;;5.53;1.67;;;;;;;;;;5038340;28;20044;-65
2023/05/25 05:01:33;;;;;;;6.38;1.88;;;;;;;;;;5036683;28;20059;-66
2023/05/25 05:04:00;;;;;;;9.93;2.20;;;;;;;;;;5042696;28;20063;-64
2023/05/25 05:06:28;;;;;;;10.13;2.47;;;;;;;;;;5048520;28;20048;-65
2023/05/25 05:08:54;;;;;;;6.85;2.65;;;;;;;;;;5033953;28;20124;-62
2023/05/25 05:11:22;;;;;;;5.20;1.70;;;;;;;;;;5054569;28;20056;-68
2023/05/25 05:13:48;;;;;;;6.63;1.90;;;;;;;;;;5039072;28;20071;-63
2023/05/25 05:16:15;;;;;;;6.25;1.88;;;;;;;;;;5049648;28;20057;-64
2023/05/25 05:18:44;;;;;;;6.55;1.85;;;;;;;;;;5050102;28;20362;-66
2023/05/25 05:21:10;;;;;;;9.05;1.92;;;;;;;;;;5052105;28;20060;-69
2023/05/25 05:23:38;;;;;;;6.57;2.45;;;;;;;;;;5039511;28;20049;-64
2023/05/25 05:26:08;;;;;;;7.00;1.70;;;;;;;;;;5048325;28;20044;-69
2023/05/25 05:28:34;;;;;;;11.75;2.50;;;;;;;;;;5014228;28;20064;-68
2023/05/25 05:31:01;;;;;;;9.18;2.85;;;;;;;;;;5039176;28;20107;-64
2023/05/25 05:33:27;;;;;;;5.00;1.75;;;;;;;;;;5059320;28;20048;-66
2023/05/25 05:35:54;;;;;;;6.97;2.20;;;;;;;;;;5037046;28;20102;-66
2023/05/25 05:38:21;;;;;;;10.52;2.67;;;;;;;;;;5037167;28;20052;-65
2023/05/25 05:40:49;;;;;;;9.40;2.75;;;;;;;;;;5051026;28;20064;-68
2023/05/25 05:43:15;;;;;;;14.60;5.10;;;;;;;;;;5051443;28;20110;-65
2023/05/25 05:45:41;;;;;;;15.82;8.70;;;;;;;;;;5046188;28;20052;-64
2023/05/25 05:48:09;;;;;;;5.93;2.33;;;;;;;;;;5043438;28;20057;-62
2023/05/25 05:50:36;;;;;;;5.22;1.80;;;;;;;;;;5031840;28;20080;-66
2023/05/25 05:53:02;;;;;;;9.13;2.30;;;;;;;;;;5046687;28;20057;-67
2023/05/25 05:55:29;;;;;;;12.52;2.53;;;;;;;;;;5033918;28;20055;-66
2023/05/25 05:57:56;;;;;;;9.10;2.33;;;;;;;;;;5042508;28;20137;-68
2023/05/25 06:00:23;;;;;;;5.50;1.65;;;;;;;;;;5049488;28;20143;-66
2023/05/25 06:02:50;;;;;;;7.75;1.73;;;;;;;;;;5028910;28;20081;-66
2023/05/25 06:05:16;;;;;;;6.68;2.13;;;;;;;;;;5036074;28;20056;-66
2023/05/25 06:07:43;;;;;;;10.30;2.95;;;;;;;;;;5042751;28;20060;-69
2023/05/25 06:10:10;;;;;;;8.30;2.63;;;;;;;;;;5046209;28;20048;-64
2023/05/25 06:12:36;;;;;;;6.22;2.08;;;;;;;;;;5052683;28;20056;-68
2023/05/25 06:15:05;;;;;;;6.57;2.00;;;;;;;;;;5022600;28;20080;-68
2023/05/25 06:17:31;;;;;;;11.32;2.92;;;;;;;;;;5046039;28;20064;-65
2023/05/25 06:19:58;;;;;;;11.15;2.72;;;;;;;;;;5034738;28;20061;-61
2023/05/25 06:22:29;;;;;;;9.85;2.13;;;;;;;;;;5039361;28;20131;-64
2023/05/25 06:24:56;;;;;;;9.18;2.58;;;;;;;;;;5007938;28;20080;-66
2023/05/25 06:27:23;;;;;;;15.43;2.80;;;;;;;;;;5037336;28;20123;-67
2023/05/25 06:29:49;;;;;;;7.00;2.72;;;;;;;;;;5054099;28;20071;-67
2023/05/25 06:32:18;;;;;;;9.50;3.13;;;;;;;;;;5039704;28;20234;-69
2023/05/25 06:34:44;;;;;;;8.10;2.85;;;;;;;;;;5031307;28;20064;-61
2023/05/25 06:37:13;;;;;;;7.45;3.38;;;;;;;;;;5036730;28;20119;-67
2023/05/25 06:39:41;;;;;;;11.93;3.00;;;;;;;;;;5048693;28;20063;-63
2023/05/25 06:42:08;;;;;;;9.20;3.05;;;;;;;;;;5054740;28;20061;-63
2023/05/25 06:44:35;;;;;;;16.80;2.70;;;;;;;;;;5042807;28;20055;-65
2023/05/25 06:47:02;;;;;;;11.05;2.63;;;;;;;;;;5028141;28;20082;-63
2023/05/25 06:49:33;;;;;;;16.60;2.60;;;;;;;;;;5035379;28;20049;-66
2023/05/25 06:52:00;;;;;;;5.13;1.87;;;;;;;;;;5052433;28;20238;-64
2023/05/25 06:54:27;;;;;;;6.60;2.20;;;;;;;;;;5040115;28;20040;-67
2023/05/25 06:56:53;;;;;;;10.20;2.42;;;;;;;;;;5005089;28;20057;-66
2023/05/25 06:59:20;;;;;;;10.00;3.00;;;;;;;;;;5038811;28;20052;-65
2023/05/25 07:01:47;;;;;;;10.82;2.95;;;;;;;;;;5050306;28;20080;-66
2023/05/25 07:04:14;;;;;;;6.13;2.03;;;;;;;;;;5036410;28;20060;-64
2023/05/25 07:06:41;;;;;;;8.85;2.00;;;;;;;;;;5035120;28;20114;-63
2023/05/25 07:09:08;;;;;;;11.50;2.50;;;;;;;;;;5048845;28;20060;-64
2023/05/25 07:11:37;;;;;;;11.18;3.10;;;;;;;;;;5043463;28;20057;-66
2023/05/25 07:14:04;;;;;;;16.58;6.15;;;;;;;;;;5062441;28;20045;-64
2023/05/25 07:16:30;;;;;;;10.45;3.75;;;;;;;;;;5024653;28;20049;-68
2023/05/25 07:18:57;;;;;;;7.53;2.33;;;;;;;;;;5055652;28;20103;-63
2023/05/25 07:21:24;;;;;;;7.97;2.22;;;;;;;;;;5041350;28;20076;-66
2023/05/25 07:23:51;;;;;;;8.43;2.13;;;;;;;;;;5060217;28;20077;-70
2023/05/25 07:26:20;;;;;;;7.00;2.03;;;;;;;;;;5026791;28;20052;-65
2023/05/25 07:28:46;;;;;;;7.95;2.03;;;;;;;;;;5046809;28;20329;-64
2023/05/25 07:31:14;;;;;;;8.45;2.53;;;;;;;;;;5037985;28;20065;-67
2023/05/25 07:33:40;;;;;;;4.97;1.67;;;;;;;;;;5042877;28;20048;-66
2023/05/25 07:36:08;;;;;;;15.32;3.15;;;;;;;;;;5054101;28;20056;-70
2023/05/25 07:38:35;;;;;;;6.47;1.90;;;;;;;;;;5038163;28;20075;-69
2023/05/25 07:41:03;;;;;;;7.60;2.30;;;;;;;;;;5057595;28;20080;-64
2023/05/25 07:43:29;;;;;;;5.27;1.87;;;;;;;;;;5051584;28;20067;-66
2023/05/25 07:45:56;;;;;;;6.05;2.03;;;;;;;;;;5049167;28;20147;-68
2023/05/25 07:48:26;;;;;;;12.30;2.40;;;;;;;;;;5046321;28;20044;-67
2023/05/25 07:50:52;;;;;;;14.02;3.00;;;;;;;;;;5054064;28;20091;-67
2023/05/25 07:53:18;;;;;;;10.77;2.33;;;;;;;;;;5036899;28;20053;-66
2023/05/25 07:55:45;;;;;;;11.82;2.88;;;;;;;;;;5038144;28;20059;-67
2023/05/25 07:58:13;;;;;;;13.02;2.35;;;;;;;;;;5052242;28;20056;-73
2023/05/25 08:00:42;;;;;;;5.30;1.83;;;;;;;;;;5052884;28;20053;-67
2023/05/25 08:03:09;;;;;;;3.97;1.45;;;;;;;;;;5048154;28;20057;-68
2023/05/25 08:05:38;;;;;;;10.05;2.05;;;;;;;;;;5028991;28;20065;-69
2023/05/25 08:08:05;;;;;;;5.38;2.17;;;;;;;;;;5040419;28;20075;-66
2023/05/25 08:10:31;;;;;;;7.20;1.80;;;;;;;;;;5039048;28;20122;-64
2023/05/25 08:12:58;;;;;;;8.50;1.83;;;;;;;;;;5051086;28;20059;-66
2023/05/25 08:15:27;;;;;;;6.25;1.70;;;;;;;;;;5055531;28;20603;-63
2023/05/25 08:17:55;;;;;;;10.70;2.42;;;;;;;;;;5053420;28;20052;-69
2023/05/25 08:20:22;;;;;;;9.38;2.00;;;;;;;;;;5059901;28;20074;-69
2023/05/25 08:22:52;;;;;;;4.28;1.58;;;;;;;;;;5051877;28;20082;-64
2023/05/25 08:25:18;;;;;;;16.25;2.97;;;;;;;;;;5032677;28;20180;-68
2023/05/25 08:27:45;;;;;;;15.88;2.95;;;;;;;;;;5061202;28;20088;-68
2023/05/25 08:30:12;;;;;;;10.25;2.15;;;;;;;;;;5050102;28;20171;-66
2023/05/25 08:32:40;;;;;;;13.00;2.20;;;;;;;;;;5052060;28;20064;-70
2023/05/25 08:35:07;;;;;;;10.55;2.00;;;;;;;;;;5012135;28;20070;-70
2023/05/25 08:37:34;;;;;;;14.13;2.25;;;;;;;;;;5030310;28;20065;-68
2023/05/25 08:40:01;;;;;;;7.80;2.10;;;;;;;;;;5038083;28;20059;-71
2023/05/25 08:42:30;;;;;;;10.10;2.00;;;;;;;;;;5059436;28;20055;-68
2023/05/25 08:45:11;;;;;;;13.20;2.20;;;;;;;;;;5037436;28;20056;-72
2023/05/25 08:47:41;;;;;;;7.28;1.60;;;;;;;;;;5062621;28;20072;-70
2023/05/25 08:50:10;;;;;;;8.25;2.20;;;;;;;;;;5051974;28;20053;-68
2023/05/25 08:52:38;;;;;;;11.35;2.17;;;;;;;;;;5047139;28;20061;-69
2023/05/25 08:55:06;;;;;;;10.75;2.17;;;;;;;;;;5026694;28;20057;-72
2023/05/25 08:57:36;;;;;;;4.18;1.48;;;;;;;;;;5061097;28;20152;-70
2023/05/25 09:00:06;;;;;;;7.38;1.90;;;;;;;;;;5052038;28;20048;-65
2023/05/25 09:02:38;;;;;;;8.38;2.38;;;;;;;;;;5050437;28;20056;-68
2023/05/25 09:05:06;;;;;;;14.90;2.50;;;;;;;;;;5056463;28;20052;-71
2023/05/25 09:07:33;;;;;;;9.32;2.33;;;;;;;;;;5059854;28;20056;-73
2023/05/25 09:10:02;;;;;;;8.48;2.72;;;;;;;;;;5051014;28;20068;-68
2023/05/25 09:12:32;;;;;;;10.82;2.25;;;;;;;;;;5046798;28;20056;-66
2023/05/25 09:15:01;;;;;;;8.02;2.65;;;;;;;;;;5042483;28;20079;-73
2023/05/25 09:17:30;;;;;;;8.88;2.72;;;;;;;;;;5053249;28;20113;-66
2023/05/25 09:19:58;;;;;;;10.18;2.50;;;;;;;;;;5060518;28;20084;-71
2023/05/25 09:22:29;;;;;;;6.22;1.98;;;;;;;;;;5046894;28;20061;-70
2023/05/25 09:24:57;;;;;;;8.48;2.08;;;;;;;;;;5045886;28;20198;-69
2023/05/25 09:27:25;;;;;;;8.98;2.38;;;;;;;;;;5019456;28;20056;-69
2023/05/25 09:29:52;;;;;;;9.30;2.43;;;;;;;;;;5038031;28;20061;-66
2023/05/25 09:32:19;;;;;;;6.13;2.20;;;;;;;;;;5017980;28;20311;-74
2023/05/25 09:34:47;;;;;;;11.70;1.90;;;;;;;;;;4996483;28;20270;-71
2023/05/25 09:37:15;;;;;;;6.75;2.03;;;;;;;;;;5044157;28;20057;-74
2023/05/25 09:39:43;;;;;;;7.45;2.00;;;;;;;;;;5039903;28;20110;-74
2023/05/25 09:42:12;;;;;;;8.98;2.40;;;;;;;;;;5055429;28;20045;-69
2023/05/25 09:44:38;;;;;;;9.90;2.00;;;;;;;;;;5054183;28;20044;-64
2023/05/25 09:47:06;;;;;;;7.68;1.98;;;;;;;;;;5047807;28;20067;-71
2023/05/25 09:49:32;;;;;;;8.68;2.05;;;;;;;;;;5060310;28;20056;-71
2023/05/25 09:52:01;;;;;;;8.40;2.10;;;;;;;;;;5052660;28;20165;-69
2023/05/25 09:54:29;;;;;;;6.95;2.05;;;;;;;;;;5057729;28;20092;-73
2023/05/25 09:57:00;;;;;;;9.07;2.05;;;;;;;;;;5036295;28;20110;-72
2023/05/25 09:59:26;;;;;;;7.85;1.92;;;;;;;;;;5040662;28;20057;-72
2023/05/25 10:01:53;;;;;;;11.65;2.60;;;;;;;;;;5057720;28;20135;-72
2023/05/25 10:04:19;;;;;;;7.85;2.22;;;;;;;;;;5036839;28;20143;-70
2023/05/25 10:06:48;;;;;;;6.80;2.25;;;;;;;;;;5034577;28;20905;-73
2023/05/25 10:09:16;;;;;;;10.70;2.38;;;;;;;;;;5036538;28;20063;-74
2023/05/25 10:11:43;;;;;;;11.05;1.95;;;;;;;;;;5059281;28;20139;-71
2023/05/25 10:14:16;;;;;;;6.93;1.98;;;;;;;;;;5038099;28;20123;-71
2023/05/25 10:16:48;;;;;;;7.15;2.00;;;;;;;;;;4939428;28;20172;-69
2023/05/25 10:19:20;;;;;;;9.73;2.45;;;;;;;;;;4965964;28;20129;-68
2023/05/25 10:21:52;;;;;;;9.15;2.55;;;;;;;;;;4975805;28;20066;-70
2023/05/25 10:24:34;;;;;;;8.38;2.53;;;;;;;;;;4969348;28;20046;-75
2023/05/25 10:27:02;;;;;;;6.07;2.30;;;;;;;;;;4901505;28;20154;-74
2023/05/25 10:29:29;;;;;;;;;;;;;;;;;;4924226;28;20091;-68
2023/05/25 10:31:57;;;;;;;15.88;6.55;;;;;;;;;;4990815;28;20080;-70
2023/05/25 10:34:24;;;;;;;12.43;2.38;;;;;;;;;;4983819;28;20066;-77
2023/05/25 10:36:51;;;;;;;10.40;2.25;;;;;;;;;;5021918;28;20063;-72
2023/05/25 10:39:20;;;;;;;6.97;2.30;;;;;;;;;;5015162;28;20123;-71
2023/05/25 10:41:47;;;;;;;9.48;2.28;;;;;;;;;;5017183;28;20057;-71
2023/05/25 10:44:13;;;;;;;6.45;1.92;;;;;;;;;;5035930;28;20173;-72
2023/05/25 10:46:40;;;;;;;7.65;2.42;;;;;;;;;;5003599;28;20147;-69
2023/05/25 10:49:08;;;;;;;8.38;2.55;;;;;;;;;;5035440;28;20137;-73
2023/05/25 10:51:42;;;;;;;8.07;3.05;;;;;;;;;;5040797;28;20056;-72
2023/05/25 10:54:19;;;;;;;7.18;2.45;;;;;;;;;;5038564;28;20048;-75
2023/05/25 10:57:00;;;;;;;6.93;2.20;;;;;;;;;;5007488;28;20045;-67
2023/05/25 10:59:27;;;;;;;8.90;2.25;;;;;;;;;;5034786;28;20148;-71
2023/05/25 11:01:54;;;;;;;7.63;2.17;;;;;;;;;;5021124;28;20135;-70
2023/05/25 11:04:28;;;;;;;8.30;1.80;;;;;;;;;;5035686;28;20088;-70
2023/05/25 11:07:07;;;;;;;8.02;3.08;;;;;;;;;;4961489;28;20064;-68
2023/05/25 11:09:35;;;;;;;5.90;2.08;;;;;;;;;;5045980;28;20064;-72
2023/05/25 11:12:02;;;;;;;6.88;2.10;;;;;;;;;;5044295;28;20056;-77
2023/05/25 11:14:42;;;;;;;9.15;1.90;;;;;;;;;;5057698;28;20063;-71
2023/05/25 11:17:10;;;;;;;6.40;2.10;;;;;;;;;;5036705;28;20065;-74
2023/05/25 11:19:43;;;;;;;11.20;2.35;;;;;;;;;;5058222;28;20060;-73
2023/05/25 11:22:13;;;;;;;9.95;2.40;;;;;;;;;;5038365;28;20064;-68
2023/05/25 11:24:39;;;;;;;6.63;2.28;;;;;;;;;;5051038;28;20072;-67
2023/05/25 11:27:07;;;;;;;8.40;1.90;;;;;;;;;;4983627;28;20060;-66
2023/05/25 11:29:36;;;;;;;5.63;1.97;;;;;;;;;;5040011;28;20128;-67
2023/05/25 11:32:03;;;;;;;11.18;2.60;;;;;;;;;;5045930;28;20117;-74
2023/05/25 11:34:33;;;;;;;8.32;3.03;;;;;;;;;;5037485;28;20061;-71
2023/05/25 11:37:03;;;;;;;13.65;3.17;;;;;;;;;;5011508;28;20080;-69
2023/05/25 11:39:30;;;;;;;7.43;2.60;;;;;;;;;;5050066;28;20090;-71
2023/05/25 11:42:02;;;;;;;8.48;1.98;;;;;;;;;;5051324;28;20060;-73
2023/05/25 11:44:30;;;;;;;5.32;1.70;;;;;;;;;;5053639;28;20048;-70
2023/05/25 11:46:57;;;;;;;5.88;2.08;;;;;;;;;;5043819;28;20049;-71
2023/05/25 11:49:24;;;;;;;11.50;3.53;;;;;;;;;;5019164;28;20057;-69
2023/05/25 11:51:53;;;;;;;18.05;7.00;;;;;;;;;;5013690;28;20135;-67
2023/05/25 11:54:24;;;;;;;11.70;3.58;;;;;;;;;;5022615;28;20061;-67
2023/05/25 11:56:51;;;;;;;7.25;2.33;;;;;;;;;;5034735;28;20111;-74
2023/05/25 11:59:18;;;;;;;6.75;2.78;;;;;;;;;;5038219;28;20095;-68
2023/05/25 12:02:02;;;;;;;12.45;3.05;;;;;;;;;;5015725;28;20053;-67
2023/05/25 12:04:29;;;;;;;7.28;2.22;;;;;;;;;;5037253;28;20060;-68
2023/05/25 12:07:01;;;;;;;7.47;2.35;;;;;;;;;;5021368;28;20095;-71
2023/05/25 12:09:29;;;;;;;9.70;2.47;;;;;;;;;;5008013;28;20128;-66
2023/05/25 12:11:56;;;;;;;6.28;2.10;;;;;;;;;;5021862;28;20059;-71
2023/05/25 12:14:23;;;;;;;5.88;2.47;;;;;;;;;;5022615;28;20064;-69
2023/05/25 12:16:50;;;;;;;5.28;1.98;;;;;;;;;;5047100;28;20056;-74
2023/05/25 12:19:20;;;;;;;7.18;2.15;;;;;;;;;;5052571;28;20068;-73
2023/05/25 12:21:50;;;;;;;11.15;2.40;;;;;;;;;;5043882;28;20106;-71
2023/05/25 12:24:17;;;;;;;7.38;2.20;;;;;;;;;;5055458;28;20056;-71
2023/05/25 12:26:49;;;;;;;7.88;1.83;;;;;;;;;;5059145;28;20056;-72
2023/05/25 12:29:16;;;;;;;9.10;2.58;;;;;;;;;;5051833;28;20153;-74
2023/05/25 12:31:45;;;;;;;9.20;2.53;;;;;;;;;;5058150;28;20053;-73
2023/05/25 12:34:17;;;;;;;6.15;2.22;;;;;;;;;;5043080;28;20119;-67
2023/05/25 12:36:45;;;;;;;5.97;1.80;;;;;;;;;;5038758;28;20064;-76
2023/05/25 12:39:12;;;;;;;7.53;2.13;;;;;;;;;;5040006;28;20210;-68
2023/05/25 12:41:42;;;;;;;6.85;1.80;;;;;;;;;;5037952;28;20164;-70
2023/05/25 12:44:17;;;;;;;7.07;2.17;;;;;;;;;;5050415;28;20063;-71
2023/05/25 12:46:43;;;;;;;5.95;1.83;;;;;;;;;;5030425;28;20167;-66
2023/05/25 12:49:21;;;;;;;4.80;1.80;;;;;;;;;;5044868;28;20080;-73
2023/05/25 12:51:48;;;;;;;5.88;1.83;;;;;;;;;;5037144;28;20073;-70
2023/05/25 12:54:16;;;;;;;7.82;2.22;;;;;;;;;;5037137;28;20079;-74
2023/05/25 12:56:43;;;;;;;;;;;;;;;;;;5045392;28;20056;-71
2023/05/25 12:59:22;;;;;;;6.93;1.83;;;;;;;;;;5056678;28;20020;-71
2023/05/25 13:01:48;;;;;;;9.80;2.33;;;;;;;;;;5033786;28;20064;-70
2023/05/25 13:04:17;;;;;;;4.38;1.48;;;;;;;;;;5052903;28;20056;-72
2023/05/25 13:06:45;;;;;;;8.63;2.17;;;;;;;;;;4989438;28;20060;-73
2023/05/25 13:09:20;;;;;;;6.30;1.88;;;;;;;;;;5036731;28;20061;-75
2023/05/25 13:11:48;;;;;;;14.18;2.45;;;;;;;;;;5037740;28;20066;-71
2023/05/25 13:14:17;;;;;;;6.63;1.95;;;;;;;;;;5035127;28;20055;-74
2023/05/25 13:16:46;;;;;;;7.80;2.53;;;;;;;;;;5009658;28;20081;-72
2023/05/25 13:19:13;;;;;;;12.20;2.80;;;;;;;;;;4990407;28;20068;-72
2023/05/25 13:21:42;;;;;;;9.52;2.15;;;;;;;;;;5016362;28;20115;-75
2023/05/25 13:24:08;;;;;;;8.73;2.40;;;;;;;;;;5055845;28;20061;-70
2023/05/25 13:26:35;;;;;;;8.85;2.35;;;;;;;;;;5029974;28;20120;-71
2023/05/25 13:29:06;;;;;;;6.57;2.30;;;;;;;;;;5056207;28;20057;-71
2023/05/25 13:31:34;;;;;;;11.55;2.45;;;;;;;;;;5032024;28;20116;-69
2023/05/25 13:34:02;;;;;;;7.93;1.88;;;;;;;;;;5060251;28;20099;-67
2023/05/25 13:36:28;;;;;;;8.20;1.92;;;;;;;;;;5021553;28;20124;-71
2023/05/25 13:38:57;;;;;;;12.40;2.28;;;;;;;;;;5054723;28;20060;-75
2023/05/25 13:41:30;;;;;;;10.75;1.77;;;;;;;;;;5046454;28;20053;-72
2023/05/25 13:44:02;;;;;;;7.35;1.95;;;;;;;;;;5043124;28;20136;-71
2023/05/25 13:46:31;;;;;;;8.57;2.20;;;;;;;;;;5034438;28;20133;-71
2023/05/25 13:49:02;;;;;;;5.47;1.70;;;;;;;;;;5044425;28;20065;-74
2023/05/25 13:51:34;;;;;;;10.90;2.55;;;;;;;;;;5032870;28;20044;-73
2023/05/25 13:54:00;;;;;;;8.70;2.13;;;;;;;;;;5042960;28;20056;-72
2023/05/25 13:56:27;;;;;;;8.00;1.92;;;;;;;;;;5041294;28;20088;-72
2023/05/25 13:58:54;;;;;;;7.70;1.90;;;;;;;;;;5019176;28;20063;-76
2023/05/25 14:01:21;;;;;;;6.20;1.77;;;;;;;;;;5034510;28;20048;-79
2023/05/25 14:03:47;;;;;;;7.50;1.77;;;;;;;;;;5056377;28;20052;-74
2023/05/25 14:06:18;;;;;;;8.35;2.95;;;;;;;;;;5040506;28;20045;-75
2023/05/25 14:08:47;;;;;;;12.05;3.03;;;;;;;;;;4954433;28;20057;-72
2023/05/25 14:11:14;;;;;;;7.22;1.98;;;;;;;;;;4996607;28;20053;-70
2023/05/25 14:13:41;;;;;;;11.38;2.30;;;;;;;;;;4973060;28;20057;-73
2023/05/25 14:16:14;;;;;;;7.50;2.10;;;;;;;;;;5001087;28;20057;-73
2023/05/25 14:21:39;;;;;;;6.38;1.92;;;;;;;;;;4967548;28;20057;-74
2023/05/25 14:24:06;;;;;;;9.38;2.38;;;;;;;;;;4977239;28;20058;-74
2023/05/25 14:26:36;;;;;;;6.57;2.00;;;;;;;;;;4961148;28;20050;-76
2023/05/25 14:39:21;;;;;;;10.00;2.45;;;;;;;;;;4907331;28;20062;-73
2023/05/25 14:41:48;;;;;;;11.20;2.47;;;;;;;;;;5022962;28;20061;-72
2023/05/25 14:44:17;;;;;;;7.60;2.10;;;;;;;;;;5035508;28;20052;-72
2023/05/25 14:46:45;;;;;;;8.93;2.20;;;;;;;;;;5060735;28;20060;-76
2023/05/25 14:49:12;;;;;;;6.15;1.70;;;;;;;;;;5031212;28;20139;-73
2023/05/25 14:51:40;;;;;;;9.07;2.20;;;;;;;;;;5033859;28;20048;-76
2023/05/25 14:54:07;;;;;;;8.40;2.40;;;;;;;;;;5037042;28;20056;-72
2023/05/25 14:56:35;;;;;;;8.57;2.03;;;;;;;;;;5056866;28;20048;-76
2023/05/25 14:59:04;;;;;;;9.95;2.45;;;;;;;;;;5000744;28;20049;-73